sensor_id;sensor_type;location;lat;lon;timestamp;P1;durP1;ratioP1;P2;durP2;ratioP2
3427;SDS011;1727;42.624;23.406;2022-10-26T00:00:05;7.13;;;5.90;;
3427;SDS011;1727;42.624;23.406;2022-10-26T00:02:32;12.47;;;6.67;;
3427;SDS011;1727;42.624;23.406;2022-10-26T00:04:59;6.20;;;5.60;;
3427;SDS011;1727;42.624;23.406;2022-10-26T00:07:27;11.77;;;6.20;;
3427;SDS011;1727;42.624;23.406;2022-10-26T00:09:54;14.67;;;6.30;;
3427;SDS011;1727;42.624;23.406;2022-10-26T00:12:23;13.23;;;6.23;;
3427;SDS011;1727;42.624;23.406;2022-10-26T00:14:49;8.83;;;5.20;;
3427;SDS011;1727;42.624;23.406;2022-10-26T00:17:16;18.50;;;6.60;;
3427;SDS011;1727;42.624;23.406;2022-10-26T00:19:43;6.23;;;5.47;;
3427;SDS011;1727;42.624;23.406;2022-10-26T00:22:10;14.13;;;6.27;;
3427;SDS011;1727;42.624;23.406;2022-10-26T00:24:37;14.33;;;6.00;;
3427;SDS011;1727;42.624;23.406;2022-10-26T00:27:04;12.80;;;7.03;;
3427;SDS011;1727;42.624;23.406;2022-10-26T00:29:32;18.23;;;6.03;;
3427;SDS011;1727;42.624;23.406;2022-10-26T00:31:59;18.03;;;7.60;;
3427;SDS011;1727;42.624;23.406;2022-10-26T00:34:25;14.90;;;6.90;;
3427;SDS011;1727;42.624;23.406;2022-10-26T00:36:55;9.10;;;5.90;;
3427;SDS011;1727;42.624;23.406;2022-10-26T00:39:22;9.23;;;5.83;;
3427;SDS011;1727;42.624;23.406;2022-10-26T00:41:49;23.23;;;6.57;;
3427;SDS011;1727;42.624;23.406;2022-10-26T00:44:44;13.63;;;5.90;;
3427;SDS011;1727;42.624;23.406;2022-10-26T00:47:24;11.27;;;6.63;;
3427;SDS011;1727;42.624;23.406;2022-10-26T00:50:00;10.97;;;6.03;;
3427;SDS011;1727;42.624;23.406;2022-10-26T00:52:31;17.77;;;7.93;;
3427;SDS011;1727;42.624;23.406;2022-10-26T00:54:58;12.00;;;6.13;;
3427;SDS011;1727;42.624;23.406;2022-10-26T00:57:26;11.90;;;6.67;;
3427;SDS011;1727;42.624;23.406;2022-10-26T00:59:54;14.40;;;6.83;;
3427;SDS011;1727;42.624;23.406;2022-10-26T01:02:23;12.60;;;6.53;;
3427;SDS011;1727;42.624;23.406;2022-10-26T01:04:50;16.30;;;7.20;;
3427;SDS011;1727;42.624;23.406;2022-10-26T01:07:18;12.00;;;6.93;;
3427;SDS011;1727;42.624;23.406;2022-10-26T01:09:46;12.90;;;5.80;;
3427;SDS011;1727;42.624;23.406;2022-10-26T01:12:14;15.00;;;5.93;;
3427;SDS011;1727;42.624;23.406;2022-10-26T01:14:40;8.43;;;5.77;;
3427;SDS011;1727;42.624;23.406;2022-10-26T01:17:13;10.67;;;5.87;;
3427;SDS011;1727;42.624;23.406;2022-10-26T01:22:54;13.87;;;6.30;;
3427;SDS011;1727;42.624;23.406;2022-10-26T01:25:34;20.63;;;6.40;;
3427;SDS011;1727;42.624;23.406;2022-10-26T01:28:12;14.67;;;6.53;;
3427;SDS011;1727;42.624;23.406;2022-10-26T01:30:58;12.60;;;5.40;;
3427;SDS011;1727;42.624;23.406;2022-10-26T01:33:32;25.23;;;7.43;;
3427;SDS011;1727;42.624;23.406;2022-10-26T01:36:06;13.03;;;7.70;;
3427;SDS011;1727;42.624;23.406;2022-10-26T01:38:41;13.33;;;5.67;;
3427;SDS011;1727;42.624;23.406;2022-10-26T01:41:19;24.23;;;5.47;;
3427;SDS011;1727;42.624;23.406;2022-10-26T01:43:54;20.67;;;7.13;;
3427;SDS011;1727;42.624;23.406;2022-10-26T01:46:25;18.67;;;5.70;;
3427;SDS011;1727;42.624;23.406;2022-10-26T01:48:54;13.03;;;6.37;;
3427;SDS011;1727;42.624;23.406;2022-10-26T01:51:25;14.43;;;7.03;;
3427;SDS011;1727;42.624;23.406;2022-10-26T01:53:52;15.30;;;8.70;;
3427;SDS011;1727;42.624;23.406;2022-10-26T01:56:20;16.83;;;5.60;;
3427;SDS011;1727;42.624;23.406;2022-10-26T02:04:53;11.33;;;5.10;;
3427;SDS011;1727;42.624;23.406;2022-10-26T02:07:35;10.70;;;6.00;;
3427;SDS011;1727;42.624;23.406;2022-10-26T02:10:09;10.10;;;6.33;;
3427;SDS011;1727;42.624;23.406;2022-10-26T02:12:44;10.77;;;6.67;;
3427;SDS011;1727;42.624;23.406;2022-10-26T02:15:19;15.27;;;6.63;;
3427;SDS011;1727;42.624;23.406;2022-10-26T02:17:50;20.27;;;7.00;;
3427;SDS011;1727;42.624;23.406;2022-10-26T02:20:24;13.30;;;8.40;;
3427;SDS011;1727;42.624;23.406;2022-10-26T02:22:57;8.23;;;6.17;;
3427;SDS011;1727;42.624;23.406;2022-10-26T02:25:29;19.13;;;5.97;;
3427;SDS011;1727;42.624;23.406;2022-10-26T02:28:00;10.90;;;5.70;;
3427;SDS011;1727;42.624;23.406;2022-10-26T02:30:31;10.00;;;6.13;;
3427;SDS011;1727;42.624;23.406;2022-10-26T02:32:59;9.90;;;6.70;;
3427;SDS011;1727;42.624;23.406;2022-10-26T02:35:29;14.40;;;5.77;;
3427;SDS011;1727;42.624;23.406;2022-10-26T02:37:59;14.80;;;7.10;;
3427;SDS011;1727;42.624;23.406;2022-10-26T02:40:28;10.93;;;6.83;;
3427;SDS011;1727;42.624;23.406;2022-10-26T02:42:56;14.97;;;8.37;;
3427;SDS011;1727;42.624;23.406;2022-10-26T02:45:29;11.87;;;8.73;;
3427;SDS011;1727;42.624;23.406;2022-10-26T02:48:00;15.03;;;8.73;;
3427;SDS011;1727;42.624;23.406;2022-10-26T02:50:28;14.00;;;9.77;;
3427;SDS011;1727;42.624;23.406;2022-10-26T02:53:04;17.03;;;9.13;;
3427;SDS011;1727;42.624;23.406;2022-10-26T02:55:42;18.03;;;9.03;;
3427;SDS011;1727;42.624;23.406;2022-10-26T02:58:13;13.33;;;7.43;;
3427;SDS011;1727;42.624;23.406;2022-10-26T03:00:45;16.43;;;9.10;;
3427;SDS011;1727;42.624;23.406;2022-10-26T03:03:12;11.60;;;6.73;;
3427;SDS011;1727;42.624;23.406;2022-10-26T03:05:41;11.47;;;7.00;;
3427;SDS011;1727;42.624;23.406;2022-10-26T03:08:08;13.47;;;6.20;;
3427;SDS011;1727;42.624;23.406;2022-10-26T03:10:35;16.93;;;7.20;;
3427;SDS011;1727;42.624;23.406;2022-10-26T03:13:07;14.43;;;6.53;;
3427;SDS011;1727;42.624;23.406;2022-10-26T03:15:34;13.13;;;5.90;;
3427;SDS011;1727;42.624;23.406;2022-10-26T03:18:01;13.97;;;5.90;;
3427;SDS011;1727;42.624;23.406;2022-10-26T03:20:28;16.03;;;6.30;;
3427;SDS011;1727;42.624;23.406;2022-10-26T03:22:56;39.63;;;7.30;;
3427;SDS011;1727;42.624;23.406;2022-10-26T03:25:23;11.90;;;6.77;;
3427;SDS011;1727;42.624;23.406;2022-10-26T03:27:55;8.77;;;6.30;;
3427;SDS011;1727;42.624;23.406;2022-10-26T03:30:23;11.83;;;6.07;;
3427;SDS011;1727;42.624;23.406;2022-10-26T03:32:50;15.33;;;6.00;;
3427;SDS011;1727;42.624;23.406;2022-10-26T03:35:16;12.67;;;6.07;;
3427;SDS011;1727;42.624;23.406;2022-10-26T03:37:43;15.13;;;7.63;;
3427;SDS011;1727;42.624;23.406;2022-10-26T03:40:11;14.60;;;6.10;;
3427;SDS011;1727;42.624;23.406;2022-10-26T03:42:38;18.10;;;5.80;;
3427;SDS011;1727;42.624;23.406;2022-10-26T03:45:06;16.33;;;6.67;;
3427;SDS011;1727;42.624;23.406;2022-10-26T03:47:34;10.57;;;5.57;;
3427;SDS011;1727;42.624;23.406;2022-10-26T03:50:08;11.73;;;5.70;;
3427;SDS011;1727;42.624;23.406;2022-10-26T03:52:35;9.70;;;5.63;;
3427;SDS011;1727;42.624;23.406;2022-10-26T03:55:02;18.50;;;6.17;;
3427;SDS011;1727;42.624;23.406;2022-10-26T03:57:30;8.10;;;6.00;;
3427;SDS011;1727;42.624;23.406;2022-10-26T03:59:57;7.60;;;5.50;;
3427;SDS011;1727;42.624;23.406;2022-10-26T04:02:23;8.50;;;6.10;;
3427;SDS011;1727;42.624;23.406;2022-10-26T04:04:50;10.77;;;6.10;;
3427;SDS011;1727;42.624;23.406;2022-10-26T04:07:17;16.23;;;6.80;;
3427;SDS011;1727;42.624;23.406;2022-10-26T04:09:44;13.00;;;6.40;;
3427;SDS011;1727;42.624;23.406;2022-10-26T04:12:10;8.50;;;5.80;;
3427;SDS011;1727;42.624;23.406;2022-10-26T04:14:39;8.77;;;6.33;;
3427;SDS011;1727;42.624;23.406;2022-10-26T04:17:05;6.93;;;6.07;;
3427;SDS011;1727;42.624;23.406;2022-10-26T04:19:32;9.00;;;6.77;;
3427;SDS011;1727;42.624;23.406;2022-10-26T04:21:59;15.00;;;6.20;;
3427;SDS011;1727;42.624;23.406;2022-10-26T04:24:26;14.20;;;6.53;;
3427;SDS011;1727;42.624;23.406;2022-10-26T04:26:52;13.43;;;6.40;;
3427;SDS011;1727;42.624;23.406;2022-10-26T04:29:19;16.63;;;7.00;;
3427;SDS011;1727;42.624;23.406;2022-10-26T04:31:47;14.53;;;6.50;;
3427;SDS011;1727;42.624;23.406;2022-10-26T04:34:14;15.80;;;5.80;;
3427;SDS011;1727;42.624;23.406;2022-10-26T04:36:41;13.27;;;6.93;;
3427;SDS011;1727;42.624;23.406;2022-10-26T04:39:07;12.17;;;7.30;;
3427;SDS011;1727;42.624;23.406;2022-10-26T04:41:34;12.83;;;8.53;;
3427;SDS011;1727;42.624;23.406;2022-10-26T04:44:01;14.43;;;7.70;;
3427;SDS011;1727;42.624;23.406;2022-10-26T04:46:28;19.27;;;7.40;;
3427;SDS011;1727;42.624;23.406;2022-10-26T04:48:56;11.93;;;5.90;;
3427;SDS011;1727;42.624;23.406;2022-10-26T04:51:22;8.20;;;6.50;;
3427;SDS011;1727;42.624;23.406;2022-10-26T04:53:52;14.17;;;6.60;;
3427;SDS011;1727;42.624;23.406;2022-10-26T04:56:19;18.90;;;6.33;;
3427;SDS011;1727;42.624;23.406;2022-10-26T04:58:46;7.23;;;5.80;;
3427;SDS011;1727;42.624;23.406;2022-10-26T05:01:12;11.10;;;6.30;;
3427;SDS011;1727;42.624;23.406;2022-10-26T05:03:39;14.70;;;6.57;;
3427;SDS011;1727;42.624;23.406;2022-10-26T05:06:07;12.33;;;6.57;;
3427;SDS011;1727;42.624;23.406;2022-10-26T05:08:34;16.50;;;6.73;;
3427;SDS011;1727;42.624;23.406;2022-10-26T05:11:01;12.00;;;6.30;;
3427;SDS011;1727;42.624;23.406;2022-10-26T05:13:27;9.37;;;6.27;;
3427;SDS011;1727;42.624;23.406;2022-10-26T05:15:54;10.43;;;6.70;;
3427;SDS011;1727;42.624;23.406;2022-10-26T05:18:21;15.10;;;6.50;;
3427;SDS011;1727;42.624;23.406;2022-10-26T05:20:50;12.80;;;6.67;;
3427;SDS011;1727;42.624;23.406;2022-10-26T05:23:19;24.97;;;7.13;;
3427;SDS011;1727;42.624;23.406;2022-10-26T05:25:46;20.27;;;6.17;;
3427;SDS011;1727;42.624;23.406;2022-10-26T05:28:14;12.63;;;6.33;;
3427;SDS011;1727;42.624;23.406;2022-10-26T05:30:43;11.30;;;6.17;;
3427;SDS011;1727;42.624;23.406;2022-10-26T05:33:11;18.27;;;6.33;;
3427;SDS011;1727;42.624;23.406;2022-10-26T05:35:39;18.80;;;6.97;;
3427;SDS011;1727;42.624;23.406;2022-10-26T05:38:06;13.97;;;5.50;;
3427;SDS011;1727;42.624;23.406;2022-10-26T05:40:35;13.57;;;5.40;;
3427;SDS011;1727;42.624;23.406;2022-10-26T05:43:02;9.57;;;5.43;;
3427;SDS011;1727;42.624;23.406;2022-10-26T05:45:29;9.83;;;5.33;;
3427;SDS011;1727;42.624;23.406;2022-10-26T05:47:56;14.33;;;6.40;;
3427;SDS011;1727;42.624;23.406;2022-10-26T05:50:23;9.27;;;5.37;;
3427;SDS011;1727;42.624;23.406;2022-10-26T05:52:49;10.87;;;6.77;;
3427;SDS011;1727;42.624;23.406;2022-10-26T05:55:17;13.80;;;5.77;;
3427;SDS011;1727;42.624;23.406;2022-10-26T05:57:46;10.73;;;5.97;;
3427;SDS011;1727;42.624;23.406;2022-10-26T06:00:17;9.33;;;6.83;;
3427;SDS011;1727;42.624;23.406;2022-10-26T06:02:49;9.47;;;5.23;;
3427;SDS011;1727;42.624;23.406;2022-10-26T06:05:33;9.60;;;5.70;;
3427;SDS011;1727;42.624;23.406;2022-10-26T06:08:06;12.60;;;5.50;;
3427;SDS011;1727;42.624;23.406;2022-10-26T06:10:35;12.07;;;5.13;;
3427;SDS011;1727;42.624;23.406;2022-10-26T06:13:04;11.50;;;6.17;;
3427;SDS011;1727;42.624;23.406;2022-10-26T06:15:31;10.17;;;6.23;;
3427;SDS011;1727;42.624;23.406;2022-10-26T06:18:11;9.40;;;6.10;;
3427;SDS011;1727;42.624;23.406;2022-10-26T06:20:50;20.23;;;6.30;;
3427;SDS011;1727;42.624;23.406;2022-10-26T06:26:20;6.80;;;6.00;;
3427;SDS011;1727;42.624;23.406;2022-10-26T06:28:57;13.17;;;6.63;;
3427;SDS011;1727;42.624;23.406;2022-10-26T06:31:30;9.13;;;5.90;;
3427;SDS011;1727;42.624;23.406;2022-10-26T06:33:58;7.10;;;4.70;;
3427;SDS011;1727;42.624;23.406;2022-10-26T06:36:26;14.03;;;4.73;;
3427;SDS011;1727;42.624;23.406;2022-10-26T06:38:54;12.60;;;5.40;;
3427;SDS011;1727;42.624;23.406;2022-10-26T06:41:25;16.37;;;5.63;;
3427;SDS011;1727;42.624;23.406;2022-10-26T06:43:52;9.50;;;6.10;;
3427;SDS011;1727;42.624;23.406;2022-10-26T06:46:27;7.30;;;5.70;;
3427;SDS011;1727;42.624;23.406;2022-10-26T06:49:01;12.70;;;5.40;;
3427;SDS011;1727;42.624;23.406;2022-10-26T06:51:38;11.10;;;5.53;;
3427;SDS011;1727;42.624;23.406;2022-10-26T06:54:11;10.93;;;7.40;;
3427;SDS011;1727;42.624;23.406;2022-10-26T06:56:43;16.00;;;6.83;;
3427;SDS011;1727;42.624;23.406;2022-10-26T06:59:13;17.60;;;8.27;;
3427;SDS011;1727;42.624;23.406;2022-10-26T07:01:45;16.87;;;7.43;;
3427;SDS011;1727;42.624;23.406;2022-10-26T07:04:11;11.87;;;7.87;;
3427;SDS011;1727;42.624;23.406;2022-10-26T07:06:38;16.13;;;8.47;;
3427;SDS011;1727;42.624;23.406;2022-10-26T07:09:05;14.90;;;7.90;;
3427;SDS011;1727;42.624;23.406;2022-10-26T07:11:32;16.50;;;8.47;;
3427;SDS011;1727;42.624;23.406;2022-10-26T07:13:58;13.77;;;7.30;;
3427;SDS011;1727;42.624;23.406;2022-10-26T07:16:25;22.90;;;8.20;;
3427;SDS011;1727;42.624;23.406;2022-10-26T07:18:54;13.83;;;9.63;;
3427;SDS011;1727;42.624;23.406;2022-10-26T07:21:21;27.67;;;9.53;;
3427;SDS011;1727;42.624;23.406;2022-10-26T07:23:48;26.10;;;11.27;;
3427;SDS011;1727;42.624;23.406;2022-10-26T07:26:14;17.17;;;8.87;;
3427;SDS011;1727;42.624;23.406;2022-10-26T07:28:41;13.63;;;7.80;;
3427;SDS011;1727;42.624;23.406;2022-10-26T07:31:08;16.77;;;9.03;;
3427;SDS011;1727;42.624;23.406;2022-10-26T07:33:35;20.07;;;10.27;;
3427;SDS011;1727;42.624;23.406;2022-10-26T07:36:03;18.53;;;10.57;;
3427;SDS011;1727;42.624;23.406;2022-10-26T07:38:32;25.17;;;10.50;;
3427;SDS011;1727;42.624;23.406;2022-10-26T07:41:00;22.43;;;10.20;;
3427;SDS011;1727;42.624;23.406;2022-10-26T07:43:27;19.30;;;10.70;;
3427;SDS011;1727;42.624;23.406;2022-10-26T07:45:53;25.37;;;11.00;;
3427;SDS011;1727;42.624;23.406;2022-10-26T07:48:20;17.10;;;10.40;;
3427;SDS011;1727;42.624;23.406;2022-10-26T07:50:47;17.60;;;10.40;;
3427;SDS011;1727;42.624;23.406;2022-10-26T07:53:15;23.07;;;11.10;;
3427;SDS011;1727;42.624;23.406;2022-10-26T07:55:42;21.23;;;11.87;;
3427;SDS011;1727;42.624;23.406;2022-10-26T07:58:09;18.43;;;10.17;;
3427;SDS011;1727;42.624;23.406;2022-10-26T08:00:35;22.33;;;10.47;;
3427;SDS011;1727;42.624;23.406;2022-10-26T08:03:02;21.43;;;10.70;;
3427;SDS011;1727;42.624;23.406;2022-10-26T08:05:29;14.13;;;8.00;;
3427;SDS011;1727;42.624;23.406;2022-10-26T08:07:56;13.17;;;7.60;;
3427;SDS011;1727;42.624;23.406;2022-10-26T08:10:24;31.37;;;11.80;;
3427;SDS011;1727;42.624;23.406;2022-10-26T08:12:53;19.00;;;10.20;;
3427;SDS011;1727;42.624;23.406;2022-10-26T08:15:20;27.30;;;10.30;;
3427;SDS011;1727;42.624;23.406;2022-10-26T08:17:47;9.57;;;6.40;;
3427;SDS011;1727;42.624;23.406;2022-10-26T08:20:14;11.17;;;7.10;;
3427;SDS011;1727;42.624;23.406;2022-10-26T08:22:40;39.47;;;19.00;;
3427;SDS011;1727;42.624;23.406;2022-10-26T08:25:07;12.03;;;8.20;;
3427;SDS011;1727;42.624;23.406;2022-10-26T08:27:35;14.37;;;6.63;;
3427;SDS011;1727;42.624;23.406;2022-10-26T08:30:02;9.50;;;6.13;;
3427;SDS011;1727;42.624;23.406;2022-10-26T08:32:30;8.63;;;6.47;;
3427;SDS011;1727;42.624;23.406;2022-10-26T08:34:56;7.10;;;4.97;;
3427;SDS011;1727;42.624;23.406;2022-10-26T08:37:23;11.63;;;5.60;;
3427;SDS011;1727;42.624;23.406;2022-10-26T08:39:51;6.60;;;4.90;;
3427;SDS011;1727;42.624;23.406;2022-10-26T08:42:20;11.63;;;5.17;;
3427;SDS011;1727;42.624;23.406;2022-10-26T08:44:54;14.27;;;6.07;;
3427;SDS011;1727;42.624;23.406;2022-10-26T08:47:25;6.63;;;5.20;;
3427;SDS011;1727;42.624;23.406;2022-10-26T08:49:57;7.33;;;5.43;;
3427;SDS011;1727;42.624;23.406;2022-10-26T08:52:28;10.13;;;5.10;;
3427;SDS011;1727;42.624;23.406;2022-10-26T08:55:01;6.00;;;5.40;;
3427;SDS011;1727;42.624;23.406;2022-10-26T08:57:32;11.03;;;4.77;;
3427;SDS011;1727;42.624;23.406;2022-10-26T09:00:03;9.00;;;4.67;;
3427;SDS011;1727;42.624;23.406;2022-10-26T09:02:32;5.10;;;3.97;;
3427;SDS011;1727;42.624;23.406;2022-10-26T09:04:59;5.50;;;4.37;;
3427;SDS011;1727;42.624;23.406;2022-10-26T09:07:39;10.97;;;5.27;;
3427;SDS011;1727;42.624;23.406;2022-10-26T09:13:04;12.97;;;4.57;;
3427;SDS011;1727;42.624;23.406;2022-10-26T09:15:42;4.93;;;4.20;;
3427;SDS011;1727;42.624;23.406;2022-10-26T09:18:22;4.20;;;2.87;;
3427;SDS011;1727;42.624;23.406;2022-10-26T09:21:05;4.23;;;3.60;;
3427;SDS011;1727;42.624;23.406;2022-10-26T09:26:36;5.63;;;3.60;;
3427;SDS011;1727;42.624;23.406;2022-10-26T09:29:10;5.47;;;3.53;;
3427;SDS011;1727;42.624;23.406;2022-10-26T09:31:41;4.03;;;3.53;;
3427;SDS011;1727;42.624;23.406;2022-10-26T09:34:14;9.03;;;4.37;;
3427;SDS011;1727;42.624;23.406;2022-10-26T09:36:48;5.87;;;3.80;;
3427;SDS011;1727;42.624;23.406;2022-10-26T09:39:19;5.73;;;4.37;;
3427;SDS011;1727;42.624;23.406;2022-10-26T09:41:53;5.17;;;4.60;;
3427;SDS011;1727;42.624;23.406;2022-10-26T09:44:23;8.13;;;3.50;;
3427;SDS011;1727;42.624;23.406;2022-10-26T09:46:57;8.00;;;3.70;;
3427;SDS011;1727;42.624;23.406;2022-10-26T09:49:35;6.07;;;3.30;;
3427;SDS011;1727;42.624;23.406;2022-10-26T09:52:06;9.10;;;3.03;;
3427;SDS011;1727;42.624;23.406;2022-10-26T09:54:34;4.53;;;3.67;;
3427;SDS011;1727;42.624;23.406;2022-10-26T09:57:01;10.00;;;3.63;;
3427;SDS011;1727;42.624;23.406;2022-10-26T09:59:29;6.63;;;3.63;;
3427;SDS011;1727;42.624;23.406;2022-10-26T10:02:01;5.23;;;3.80;;
3427;SDS011;1727;42.624;23.406;2022-10-26T10:04:55;6.90;;;4.30;;
3427;SDS011;1727;42.624;23.406;2022-10-26T10:07:21;12.23;;;4.67;;
3427;SDS011;1727;42.624;23.406;2022-10-26T10:09:55;11.50;;;5.00;;
3427;SDS011;1727;42.624;23.406;2022-10-26T10:12:32;6.50;;;4.23;;
3427;SDS011;1727;42.624;23.406;2022-10-26T10:14:59;10.87;;;5.13;;
3427;SDS011;1727;42.624;23.406;2022-10-26T10:17:27;5.53;;;4.07;;
3427;SDS011;1727;42.624;23.406;2022-10-26T10:19:53;4.37;;;3.73;;
3427;SDS011;1727;42.624;23.406;2022-10-26T10:22:36;5.60;;;3.90;;
3427;SDS011;1727;42.624;23.406;2022-10-26T10:25:22;6.40;;;4.13;;
3427;SDS011;1727;42.624;23.406;2022-10-26T10:27:58;5.30;;;3.70;;
3427;SDS011;1727;42.624;23.406;2022-10-26T10:30:27;5.83;;;3.57;;
3427;SDS011;1727;42.624;23.406;2022-10-26T10:33:06;3.70;;;3.40;;
3427;SDS011;1727;42.624;23.406;2022-10-26T10:35:36;7.57;;;3.83;;
3427;SDS011;1727;42.624;23.406;2022-10-26T10:38:05;6.33;;;4.03;;
3427;SDS011;1727;42.624;23.406;2022-10-26T10:40:38;4.77;;;4.00;;
3427;SDS011;1727;42.624;23.406;2022-10-26T10:43:05;6.90;;;4.00;;
3427;SDS011;1727;42.624;23.406;2022-10-26T10:45:38;11.03;;;3.57;;
3427;SDS011;1727;42.624;23.406;2022-10-26T10:48:13;5.83;;;3.77;;
3427;SDS011;1727;42.624;23.406;2022-10-26T10:50:50;4.67;;;3.33;;
3427;SDS011;1727;42.624;23.406;2022-10-26T10:53:19;4.07;;;3.53;;
3427;SDS011;1727;42.624;23.406;2022-10-26T10:58:48;5.60;;;4.30;;
3427;SDS011;1727;42.624;23.406;2022-10-26T11:01:27;4.13;;;3.50;;
3427;SDS011;1727;42.624;23.406;2022-10-26T11:04:08;8.80;;;3.50;;
3427;SDS011;1727;42.624;23.406;2022-10-26T11:06:49;13.20;;;3.73;;
3427;SDS011;1727;42.624;23.406;2022-10-26T11:09:20;3.33;;;2.93;;
3427;SDS011;1727;42.624;23.406;2022-10-26T11:11:53;7.57;;;3.50;;
3427;SDS011;1727;42.624;23.406;2022-10-26T11:14:23;5.57;;;3.07;;
3427;SDS011;1727;42.624;23.406;2022-10-26T11:16:54;12.50;;;3.70;;
3427;SDS011;1727;42.624;23.406;2022-10-26T11:19:32;3.90;;;3.40;;
3427;SDS011;1727;42.624;23.406;2022-10-26T11:22:01;5.67;;;3.03;;
3427;SDS011;1727;42.624;23.406;2022-10-26T11:24:33;11.93;;;3.10;;
3427;SDS011;1727;42.624;23.406;2022-10-26T11:27:07;3.27;;;2.80;;
3427;SDS011;1727;42.624;23.406;2022-10-26T11:29:42;5.97;;;3.37;;
3427;SDS011;1727;42.624;23.406;2022-10-26T11:32:17;7.43;;;4.93;;
3427;SDS011;1727;42.624;23.406;2022-10-26T11:34:50;12.23;;;4.70;;
3427;SDS011;1727;42.624;23.406;2022-10-26T11:37:24;7.13;;;3.90;;
3427;SDS011;1727;42.624;23.406;2022-10-26T11:40:03;7.93;;;3.90;;
3427;SDS011;1727;42.624;23.406;2022-10-26T11:42:40;12.07;;;4.33;;
3427;SDS011;1727;42.624;23.406;2022-10-26T11:45:14;5.90;;;3.60;;
3427;SDS011;1727;42.624;23.406;2022-10-26T11:47:45;5.53;;;3.63;;
3427;SDS011;1727;42.624;23.406;2022-10-26T11:50:18;7.40;;;3.87;;
3427;SDS011;1727;42.624;23.406;2022-10-26T11:52:48;4.37;;;3.97;;
3427;SDS011;1727;42.624;23.406;2022-10-26T11:55:21;7.13;;;3.30;;
3427;SDS011;1727;42.624;23.406;2022-10-26T11:57:48;14.97;;;3.63;;
3427;SDS011;1727;42.624;23.406;2022-10-26T12:00:19;6.83;;;4.33;;
3427;SDS011;1727;42.624;23.406;2022-10-26T12:02:48;8.60;;;4.87;;
3427;SDS011;1727;42.624;23.406;2022-10-26T12:05:21;3.57;;;3.07;;
3427;SDS011;1727;42.624;23.406;2022-10-26T12:07:52;7.03;;;3.10;;
3427;SDS011;1727;42.624;23.406;2022-10-26T12:10:26;6.20;;;3.23;;
3427;SDS011;1727;42.624;23.406;2022-10-26T12:12:57;5.37;;;2.87;;
3427;SDS011;1727;42.624;23.406;2022-10-26T12:15:33;5.57;;;3.47;;
3427;SDS011;1727;42.624;23.406;2022-10-26T12:18:10;4.97;;;2.77;;
3427;SDS011;1727;42.624;23.406;2022-10-26T12:20:54;3.70;;;3.30;;
3427;SDS011;1727;42.624;23.406;2022-10-26T12:23:27;2.83;;;2.60;;
3427;SDS011;1727;42.624;23.406;2022-10-26T12:32:02;4.30;;;2.70;;
3427;SDS011;1727;42.624;23.406;2022-10-26T12:34:58;8.07;;;2.50;;
3427;SDS011;1727;42.624;23.406;2022-10-26T12:37:31;2.17;;;1.90;;
3427;SDS011;1727;42.624;23.406;2022-10-26T12:49:02;4.63;;;1.97;;
3427;SDS011;1727;42.624;23.406;2022-10-26T12:51:41;2.00;;;1.90;;
3427;SDS011;1727;42.624;23.406;2022-10-26T12:54:17;2.43;;;2.23;;
3427;SDS011;1727;42.624;23.406;2022-10-26T12:56:58;4.17;;;2.20;;
3427;SDS011;1727;42.624;23.406;2022-10-26T12:59:39;3.40;;;2.13;;
3427;SDS011;1727;42.624;23.406;2022-10-26T13:05:23;6.03;;;2.50;;
3427;SDS011;1727;42.624;23.406;2022-10-26T13:08:15;2.53;;;2.17;;
3427;SDS011;1727;42.624;23.406;2022-10-26T13:10:44;2.10;;;1.90;;
3427;SDS011;1727;42.624;23.406;2022-10-26T13:13:27;2.90;;;1.83;;
3427;SDS011;1727;42.624;23.406;2022-10-26T13:15:56;3.20;;;2.60;;
3427;SDS011;1727;42.624;23.406;2022-10-26T13:18:24;3.70;;;1.40;;
3427;SDS011;1727;42.624;23.406;2022-10-26T13:20:52;3.90;;;1.77;;
3427;SDS011;1727;42.624;23.406;2022-10-26T13:23:27;3.30;;;1.80;;
3427;SDS011;1727;42.624;23.406;2022-10-26T13:26:04;2.10;;;1.93;;
3427;SDS011;1727;42.624;23.406;2022-10-26T13:28:41;2.60;;;1.93;;
3427;SDS011;1727;42.624;23.406;2022-10-26T13:31:19;5.17;;;2.80;;
3427;SDS011;1727;42.624;23.406;2022-10-26T13:34:21;3.10;;;2.30;;
3427;SDS011;1727;42.624;23.406;2022-10-26T13:36:50;3.97;;;2.00;;
3427;SDS011;1727;42.624;23.406;2022-10-26T13:39:24;3.40;;;1.80;;
3427;SDS011;1727;42.624;23.406;2022-10-26T13:41:57;2.93;;;1.70;;
3427;SDS011;1727;42.624;23.406;2022-10-26T13:44:25;5.33;;;1.87;;
3427;SDS011;1727;42.624;23.406;2022-10-26T13:46:57;2.57;;;2.13;;
3427;SDS011;1727;42.624;23.406;2022-10-26T13:49:26;2.77;;;2.10;;
3427;SDS011;1727;42.624;23.406;2022-10-26T13:51:56;1.90;;;1.60;;
3427;SDS011;1727;42.624;23.406;2022-10-26T13:54:28;7.90;;;2.33;;
3427;SDS011;1727;42.624;23.406;2022-10-26T13:57:04;2.50;;;2.30;;
3427;SDS011;1727;42.624;23.406;2022-10-26T13:59:41;6.47;;;2.07;;
3427;SDS011;1727;42.624;23.406;2022-10-26T14:02:17;5.20;;;1.87;;
3427;SDS011;1727;42.624;23.406;2022-10-26T14:04:47;3.40;;;1.80;;
3427;SDS011;1727;42.624;23.406;2022-10-26T14:07:18;6.20;;;1.93;;
3427;SDS011;1727;42.624;23.406;2022-10-26T14:09:52;3.13;;;2.07;;
3427;SDS011;1727;42.624;23.406;2022-10-26T14:12:22;9.77;;;2.57;;
3427;SDS011;1727;42.624;23.406;2022-10-26T14:14:53;6.90;;;2.03;;
3427;SDS011;1727;42.624;23.406;2022-10-26T14:17:27;3.13;;;2.33;;
3427;SDS011;1727;42.624;23.406;2022-10-26T14:19:54;7.97;;;2.53;;
3427;SDS011;1727;42.624;23.406;2022-10-26T14:22:22;4.37;;;2.00;;
3427;SDS011;1727;42.624;23.406;2022-10-26T14:24:52;4.77;;;2.23;;
3427;SDS011;1727;42.624;23.406;2022-10-26T14:27:20;8.80;;;3.57;;
3427;SDS011;1727;42.624;23.406;2022-10-26T14:29:49;7.73;;;2.00;;
3427;SDS011;1727;42.624;23.406;2022-10-26T14:32:21;3.07;;;2.80;;
3427;SDS011;1727;42.624;23.406;2022-10-26T14:34:51;1.80;;;1.50;;
3427;SDS011;1727;42.624;23.406;2022-10-26T14:37:22;2.03;;;1.90;;
3427;SDS011;1727;42.624;23.406;2022-10-26T14:40:03;7.55;;;2.60;;
3427;SDS011;1727;42.624;23.406;2022-10-26T14:42:34;3.20;;;2.20;;
3427;SDS011;1727;42.624;23.406;2022-10-26T14:45:05;3.40;;;2.50;;
3427;SDS011;1727;42.624;23.406;2022-10-26T14:47:46;2.77;;;1.93;;
3427;SDS011;1727;42.624;23.406;2022-10-26T14:50:18;3.07;;;2.27;;
3427;SDS011;1727;42.624;23.406;2022-10-26T14:52:48;2.70;;;2.27;;
3427;SDS011;1727;42.624;23.406;2022-10-26T14:55:16;5.77;;;2.60;;
3427;SDS011;1727;42.624;23.406;2022-10-26T14:57:45;3.53;;;2.40;;
3427;SDS011;1727;42.624;23.406;2022-10-26T15:00:15;5.50;;;3.03;;
3427;SDS011;1727;42.624;23.406;2022-10-26T15:02:44;15.53;;;3.73;;
3427;SDS011;1727;42.624;23.406;2022-10-26T15:05:17;10.27;;;4.20;;
3427;SDS011;1727;42.624;23.406;2022-10-26T15:07:46;8.90;;;3.43;;
3427;SDS011;1727;42.624;23.406;2022-10-26T15:13:17;9.00;;;3.70;;
3427;SDS011;1727;42.624;23.406;2022-10-26T15:15:49;10.23;;;5.20;;
3427;SDS011;1727;42.624;23.406;2022-10-26T15:18:19;12.57;;;4.37;;
3427;SDS011;1727;42.624;23.406;2022-10-26T15:20:49;13.70;;;3.50;;
3427;SDS011;1727;42.624;23.406;2022-10-26T15:23:16;10.53;;;3.80;;
3427;SDS011;1727;42.624;23.406;2022-10-26T15:25:49;12.60;;;3.80;;
3427;SDS011;1727;42.624;23.406;2022-10-26T15:28:24;8.30;;;3.43;;
3427;SDS011;1727;42.624;23.406;2022-10-26T15:30:58;6.50;;;4.17;;
3427;SDS011;1727;42.624;23.406;2022-10-26T15:33:27;13.00;;;5.47;;
3427;SDS011;1727;42.624;23.406;2022-10-26T15:36:06;11.10;;;4.80;;
3427;SDS011;1727;42.624;23.406;2022-10-26T15:38:37;23.63;;;5.70;;
3427;SDS011;1727;42.624;23.406;2022-10-26T15:41:05;25.10;;;7.13;;
3427;SDS011;1727;42.624;23.406;2022-10-26T15:43:50;29.37;;;6.97;;
3427;SDS011;1727;42.624;23.406;2022-10-26T15:46:20;87.83;;;12.30;;
3427;SDS011;1727;42.624;23.406;2022-10-26T15:48:48;28.57;;;6.50;;
3427;SDS011;1727;42.624;23.406;2022-10-26T15:51:19;19.10;;;6.23;;
3427;SDS011;1727;42.624;23.406;2022-10-26T15:53:46;23.73;;;6.30;;
3427;SDS011;1727;42.624;23.406;2022-10-26T15:56:14;19.97;;;6.80;;